sensor_id;sensor_type;location;lat;lon;timestamp;pressure;altitude;pressure_sealevel;temperature;humidity
47154;BME280;32907;41.412;2.164;2022-12-18T00:01:27;101237.00;;;19.01;48.18
47154;BME280;32907;41.412;2.164;2022-12-18T00:03:55;101230.72;;;19.00;48.16
47154;BME280;32907;41.412;2.164;2022-12-18T00:06:25;101233.19;;;19.02;48.07
47154;BME280;32907;41.412;2.164;2022-12-18T00:08:56;101261.47;;;19.16;48.34
47154;BME280;32907;41.412;2.164;2022-12-18T00:11:26;101264.19;;;19.16;47.91
47154;BME280;32907;41.412;2.164;2022-12-18T00:13:56;101251.97;;;19.14;48.16
47154;BME280;32907;41.412;2.164;2022-12-18T00:16:26;101268.56;;;19.12;47.78
47154;BME280;32907;41.412;2.164;2022-12-18T00:18:55;101266.94;;;19.11;48.07
47154;BME280;32907;41.412;2.164;2022-12-18T00:21:24;101218.16;;;18.79;47.86
47154;BME280;32907;41.412;2.164;2022-12-18T00:23:52;101255.47;;;19.04;47.97
47154;BME280;32907;41.412;2.164;2022-12-18T00:26:23;101270.16;;;19.08;47.96
47154;BME280;32907;41.412;2.164;2022-12-18T00:29:17;101259.53;;;18.96;47.48
47154;BME280;32907;41.412;2.164;2022-12-18T00:31:44;101225.75;;;18.72;47.53
47154;BME280;32907;41.412;2.164;2022-12-18T00:34:13;101264.13;;;18.91;47.84
47154;BME280;32907;41.412;2.164;2022-12-18T00:36:41;101191.38;;;18.45;47.67
47154;BME280;32907;41.412;2.164;2022-12-18T00:39:10;101259.19;;;18.83;47.65
47154;BME280;32907;41.412;2.164;2022-12-18T00:41:39;101283.16;;;18.96;47.92
47154;BME280;32907;41.412;2.164;2022-12-18T00:44:37;101274.44;;;18.89;47.52
47154;BME280;32907;41.412;2.164;2022-12-18T00:47:05;101230.84;;;18.63;47.52
47154;BME280;32907;41.412;2.164;2022-12-18T00:49:33;101261.06;;;18.72;47.71
47154;BME280;32907;41.412;2.164;2022-12-18T00:52:00;101291.28;;;18.91;47.55
47154;BME280;32907;41.412;2.164;2022-12-18T00:54:28;101260.78;;;18.73;47.78
47154;BME280;32907;41.412;2.164;2022-12-18T00:56:56;101297.03;;;18.94;47.61
47154;BME280;32907;41.412;2.164;2022-12-18T00:59:25;101236.78;;;18.55;47.99
47154;BME280;32907;41.412;2.164;2022-12-18T01:01:53;101295.69;;;18.97;47.94
47154;BME280;32907;41.412;2.164;2022-12-18T01:04:21;101298.66;;;19.00;48.05
47154;BME280;32907;41.412;2.164;2022-12-18T01:06:49;101265.16;;;18.80;48.21
47154;BME280;32907;41.412;2.164;2022-12-18T01:09:17;101290.78;;;18.94;48.27
47154;BME280;32907;41.412;2.164;2022-12-18T01:11:44;101259.69;;;18.75;48.12
47154;BME280;32907;41.412;2.164;2022-12-18T01:14:12;101283.94;;;18.86;48.10
47154;BME280;32907;41.412;2.164;2022-12-18T01:16:40;101279.59;;;18.85;47.91
47154;BME280;32907;41.412;2.164;2022-12-18T01:19:08;101236.84;;;18.65;48.30
47154;BME280;32907;41.412;2.164;2022-12-18T01:21:36;101285.31;;;18.89;48.00
47154;BME280;32907;41.412;2.164;2022-12-18T01:24:04;101304.91;;;18.96;48.32
47154;BME280;32907;41.412;2.164;2022-12-18T01:26:33;101315.28;;;19.04;48.75
47154;BME280;32907;41.412;2.164;2022-12-18T01:29:01;101246.81;;;18.60;48.66
47154;BME280;32907;41.412;2.164;2022-12-18T01:31:31;101267.03;;;18.69;48.23
47154;BME280;32907;41.412;2.164;2022-12-18T01:34:03;101276.00;;;18.75;48.14
47154;BME280;32907;41.412;2.164;2022-12-18T01:36:36;101313.34;;;18.99;47.80
47154;BME280;32907;41.412;2.164;2022-12-18T01:39:12;101299.44;;;18.86;47.71
47154;BME280;32907;41.412;2.164;2022-12-18T01:41:41;101268.34;;;18.66;47.55
47154;BME280;32907;41.412;2.164;2022-12-18T01:49:57;101291.75;;;18.72;47.45
47154;BME280;32907;41.412;2.164;2022-12-18T01:52:29;101320.63;;;18.89;47.76
47154;BME280;32907;41.412;2.164;2022-12-18T01:55:00;101343.25;;;18.94;47.67
47154;BME280;32907;41.412;2.164;2022-12-18T01:57:29;101323.59;;;18.77;47.75
47154;BME280;32907;41.412;2.164;2022-12-18T02:00:00;101275.28;;;18.52;48.01
47154;BME280;32907;41.412;2.164;2022-12-18T02:02:41;101318.38;;;18.76;47.61
47154;BME280;32907;41.412;2.164;2022-12-18T02:05:11;101313.22;;;18.74;47.74
47154;BME280;32907;41.412;2.164;2022-12-18T02:08:08;101356.81;;;18.94;47.30
47154;BME280;32907;41.412;2.164;2022-12-18T02:16:39;101355.97;;;18.89;47.17
47154;BME280;32907;41.412;2.164;2022-12-18T02:22:11;101365.75;;;18.90;47.13
47154;BME280;32907;41.412;2.164;2022-12-18T02:27:47;101311.03;;;18.34;47.35
47154;BME280;32907;41.412;2.164;2022-12-18T02:30:17;101373.31;;;18.78;47.50
47154;BME280;32907;41.412;2.164;2022-12-18T02:32:50;101347.03;;;18.56;46.98
47154;BME280;32907;41.412;2.164;2022-12-18T02:35:25;101374.34;;;18.71;47.22
47154;BME280;32907;41.412;2.164;2022-12-18T02:37:58;101377.56;;;18.68;46.93
47154;BME280;32907;41.412;2.164;2022-12-18T02:40:30;101374.53;;;18.65;46.84
47154;BME280;32907;41.412;2.164;2022-12-18T02:43:10;101387.41;;;18.75;46.78
47154;BME280;32907;41.412;2.164;2022-12-18T02:45:50;101294.09;;;18.16;46.80
47154;BME280;32907;41.412;2.164;2022-12-18T02:48:31;101382.41;;;18.61;46.80
47154;BME280;32907;41.412;2.164;2022-12-18T02:51:08;101357.03;;;18.51;46.80
47154;BME280;32907;41.412;2.164;2022-12-18T02:53:53;101380.75;;;18.60;47.34
47154;BME280;32907;41.412;2.164;2022-12-18T02:56:37;101369.53;;;18.47;47.06
47154;BME280;32907;41.412;2.164;2022-12-18T02:59:15;101361.06;;;18.43;47.29
47154;BME280;32907;41.412;2.164;2022-12-18T03:02:20;101413.91;;;18.62;47.34
47154;BME280;32907;41.412;2.164;2022-12-18T03:04:58;101368.66;;;18.41;47.44
47154;BME280;32907;41.412;2.164;2022-12-18T03:08:15;101408.22;;;18.64;47.13
47154;BME280;32907;41.412;2.164;2022-12-18T03:10:51;101406.84;;;18.61;46.95
47154;BME280;32907;41.412;2.164;2022-12-18T03:13:33;101359.03;;;18.28;47.30
47154;BME280;32907;41.412;2.164;2022-12-18T03:16:06;101408.78;;;18.66;47.07
47154;BME280;32907;41.412;2.164;2022-12-18T03:18:47;101415.06;;;18.66;46.90
47154;BME280;32907;41.412;2.164;2022-12-18T03:21:19;101357.72;;;18.31;47.10
47154;BME280;32907;41.412;2.164;2022-12-18T03:23:51;101368.03;;;18.29;46.72
47154;BME280;32907;41.412;2.164;2022-12-18T03:26:25;101381.97;;;18.42;47.24
47154;BME280;32907;41.412;2.164;2022-12-18T03:29:03;101417.13;;;18.59;46.73
47154;BME280;32907;41.412;2.164;2022-12-18T03:31:34;101387.94;;;18.39;46.36
47154;BME280;32907;41.412;2.164;2022-12-18T03:34:09;101415.75;;;18.57;46.29
47154;BME280;32907;41.412;2.164;2022-12-18T03:36:43;101365.53;;;18.22;46.56
47154;BME280;32907;41.412;2.164;2022-12-18T03:39:13;101403.97;;;18.41;46.27
47154;BME280;32907;41.412;2.164;2022-12-18T03:42:16;101421.47;;;18.55;46.30
47154;BME280;32907;41.412;2.164;2022-12-18T03:45:01;101396.03;;;18.34;45.70
47154;BME280;32907;41.412;2.164;2022-12-18T03:50:27;101403.69;;;18.42;45.43
47154;BME280;32907;41.412;2.164;2022-12-18T03:55:47;101392.00;;;18.37;45.24
47154;BME280;32907;41.412;2.164;2022-12-18T03:58:24;101382.44;;;18.34;45.45
47154;BME280;32907;41.412;2.164;2022-12-18T04:01:07;101381.63;;;18.34;44.98
47154;BME280;32907;41.412;2.164;2022-12-18T04:03:40;101417.94;;;18.55;45.29
47154;BME280;32907;41.412;2.164;2022-12-18T04:06:09;101402.72;;;18.54;45.07
47154;BME280;32907;41.412;2.164;2022-12-18T04:08:40;101356.59;;;18.27;45.03
47154;BME280;32907;41.412;2.164;2022-12-18T04:11:11;101393.16;;;18.46;45.04
47154;BME280;32907;41.412;2.164;2022-12-18T04:13:39;101354.13;;;18.25;45.06
47154;BME280;32907;41.412;2.164;2022-12-18T04:16:17;101357.84;;;18.14;45.06
47154;BME280;32907;41.412;2.164;2022-12-18T04:18:46;101414.13;;;18.56;45.06
47154;BME280;32907;41.412;2.164;2022-12-18T04:21:14;101399.19;;;18.53;45.56
47154;BME280;32907;41.412;2.164;2022-12-18T04:23:43;101360.69;;;18.29;45.34
47154;BME280;32907;41.412;2.164;2022-12-18T04:26:10;101403.00;;;18.57;45.46
47154;BME280;32907;41.412;2.164;2022-12-18T04:29:01;101346.25;;;18.24;45.61
47154;BME280;32907;41.412;2.164;2022-12-18T04:31:28;101369.69;;;18.35;45.26
47154;BME280;32907;41.412;2.164;2022-12-18T04:33:57;101361.53;;;18.30;45.28
47154;BME280;32907;41.412;2.164;2022-12-18T04:36:26;101367.28;;;18.38;45.32
47154;BME280;32907;41.412;2.164;2022-12-18T04:38:54;101393.78;;;18.58;45.23
47154;BME280;32907;41.412;2.164;2022-12-18T04:41:23;101405.72;;;18.57;44.68
47154;BME280;32907;41.412;2.164;2022-12-18T04:43:52;101410.94;;;18.64;44.69
47154;BME280;32907;41.412;2.164;2022-12-18T04:46:21;101410.13;;;18.63;44.56
47154;BME280;32907;41.412;2.164;2022-12-18T04:48:49;101395.88;;;18.51;44.71
47154;BME280;32907;41.412;2.164;2022-12-18T04:51:17;101368.88;;;18.34;44.40
47154;BME280;32907;41.412;2.164;2022-12-18T04:53:53;101412.84;;;18.63;44.42
47154;BME280;32907;41.412;2.164;2022-12-18T04:56:21;101416.06;;;18.60;43.91
47154;BME280;32907;41.412;2.164;2022-12-18T04:58:49;101418.75;;;18.60;44.33
47154;BME280;32907;41.412;2.164;2022-12-18T05:01:18;101427.97;;;18.54;44.11
47154;BME280;32907;41.412;2.164;2022-12-18T05:03:46;101400.38;;;18.35;44.19
47154;BME280;32907;41.412;2.164;2022-12-18T05:06:14;101438.84;;;18.54;44.40
47154;BME280;32907;41.412;2.164;2022-12-18T05:08:42;101427.38;;;18.47;44.20
47154;BME280;32907;41.412;2.164;2022-12-18T05:11:13;101430.03;;;18.42;44.21
47154;BME280;32907;41.412;2.164;2022-12-18T05:13:44;101401.56;;;18.17;43.77
47154;BME280;32907;41.412;2.164;2022-12-18T05:16:13;101410.34;;;18.25;44.17
47154;BME280;32907;41.412;2.164;2022-12-18T05:18:41;101463.22;;;18.49;44.10
47154;BME280;32907;41.412;2.164;2022-12-18T05:21:09;101431.03;;;18.31;44.46
47154;BME280;32907;41.412;2.164;2022-12-18T05:23:37;101459.16;;;18.52;44.10
47154;BME280;32907;41.412;2.164;2022-12-18T05:26:06;101438.44;;;18.40;44.10
47154;BME280;32907;41.412;2.164;2022-12-18T05:28:35;101420.09;;;18.26;44.00
47154;BME280;32907;41.412;2.164;2022-12-18T05:31:04;101403.66;;;18.05;43.95
47154;BME280;32907;41.412;2.164;2022-12-18T05:33:34;101352.34;;;17.77;44.01
47154;BME280;32907;41.412;2.164;2022-12-18T05:36:04;101416.13;;;18.06;43.97
47154;BME280;32907;41.412;2.164;2022-12-18T05:38:36;101441.00;;;18.25;44.20
47154;BME280;32907;41.412;2.164;2022-12-18T05:41:05;101473.75;;;18.40;44.39
47154;BME280;32907;41.412;2.164;2022-12-18T05:43:37;101441.22;;;18.18;44.23
47154;BME280;32907;41.412;2.164;2022-12-18T05:46:08;101425.94;;;18.12;44.48
47154;BME280;32907;41.412;2.164;2022-12-18T05:48:38;101481.00;;;18.35;44.33
47154;BME280;32907;41.412;2.164;2022-12-18T05:51:15;101435.06;;;18.01;45.00
47154;BME280;32907;41.412;2.164;2022-12-18T05:53:44;101501.66;;;18.36;45.22
47154;BME280;32907;41.412;2.164;2022-12-18T05:56:15;101509.56;;;18.37;45.23
47154;BME280;32907;41.412;2.164;2022-12-18T05:58:44;101472.16;;;18.17;44.89
47154;BME280;32907;41.412;2.164;2022-12-18T06:01:16;101403.63;;;17.78;45.11
47154;BME280;32907;41.412;2.164;2022-12-18T06:03:45;101509.34;;;18.44;44.98
47154;BME280;32907;41.412;2.164;2022-12-18T06:06:23;101521.88;;;18.45;44.91
47154;BME280;32907;41.412;2.164;2022-12-18T06:08:52;101509.81;;;18.36;45.11
47154;BME280;32907;41.412;2.164;2022-12-18T06:11:24;101528.94;;;18.46;44.84
47154;BME280;32907;41.412;2.164;2022-12-18T06:13:56;101528.13;;;18.45;45.10
47154;BME280;32907;41.412;2.164;2022-12-18T06:16:27;101504.22;;;18.21;44.91
47154;BME280;32907;41.412;2.164;2022-12-18T06:18:59;101475.25;;;18.04;44.38
47154;BME280;32907;41.412;2.164;2022-12-18T06:21:28;101547.44;;;18.49;44.49
47154;BME280;32907;41.412;2.164;2022-12-18T06:23:57;101531.88;;;18.44;44.53
47154;BME280;32907;41.412;2.164;2022-12-18T06:26:25;101557.84;;;18.57;44.36
47154;BME280;32907;41.412;2.164;2022-12-18T06:28:55;101564.91;;;18.58;44.05
47154;BME280;32907;41.412;2.164;2022-12-18T06:31:25;101534.25;;;18.36;43.94
47154;BME280;32907;41.412;2.164;2022-12-18T06:33:53;101561.09;;;18.59;44.09
47154;BME280;32907;41.412;2.164;2022-12-18T06:36:21;101515.13;;;18.26;44.40
47154;BME280;32907;41.412;2.164;2022-12-18T06:38:49;101556.31;;;18.44;43.99
47154;BME280;32907;41.412;2.164;2022-12-18T06:41:20;101575.13;;;18.51;44.39
47154;BME280;32907;41.412;2.164;2022-12-18T06:43:48;101535.50;;;18.28;44.48
47154;BME280;32907;41.412;2.164;2022-12-18T06:46:16;101571.13;;;18.54;44.38
47154;BME280;32907;41.412;2.164;2022-12-18T06:48:47;101551.94;;;18.38;44.09
47154;BME280;32907;41.412;2.164;2022-12-18T06:51:18;101524.88;;;18.22;44.03
47154;BME280;32907;41.412;2.164;2022-12-18T06:53:46;101548.97;;;18.40;43.94
47154;BME280;32907;41.412;2.164;2022-12-18T06:56:14;101553.56;;;18.39;44.15
47154;BME280;32907;41.412;2.164;2022-12-18T06:58:42;101588.59;;;18.63;43.93
47154;BME280;32907;41.412;2.164;2022-12-18T07:01:11;101590.22;;;18.64;43.54
47154;BME280;32907;41.412;2.164;2022-12-18T07:03:40;101586.75;;;18.68;43.96
47154;BME280;32907;41.412;2.164;2022-12-18T07:06:18;101564.06;;;18.58;44.09
47154;BME280;32907;41.412;2.164;2022-12-18T07:08:47;101586.75;;;18.68;44.59
47154;BME280;32907;41.412;2.164;2022-12-18T07:11:16;101590.00;;;18.65;43.78
47154;BME280;32907;41.412;2.164;2022-12-18T07:13:44;101587.28;;;18.65;44.19
47154;BME280;32907;41.412;2.164;2022-12-18T07:16:18;101586.56;;;18.75;47.27
47154;BME280;32907;41.412;2.164;2022-12-18T07:18:54;101575.41;;;18.71;45.70
47154;BME280;32907;41.412;2.164;2022-12-18T07:21:23;101554.59;;;18.60;44.96
47154;BME280;32907;41.412;2.164;2022-12-18T07:23:52;101591.25;;;18.85;44.81
47154;BME280;32907;41.412;2.164;2022-12-18T07:26:21;101572.94;;;18.70;44.43
47154;BME280;32907;41.412;2.164;2022-12-18T07:28:49;101585.25;;;18.78;44.63
47154;BME280;32907;41.412;2.164;2022-12-18T07:31:19;101611.16;;;18.90;44.46
47154;BME280;32907;41.412;2.164;2022-12-18T07:33:48;101566.84;;;18.63;44.21
47154;BME280;32907;41.412;2.164;2022-12-18T07:36:17;101600.63;;;18.94;44.51
47154;BME280;32907;41.412;2.164;2022-12-18T07:38:49;101556.25;;;18.61;43.75
47154;BME280;32907;41.412;2.164;2022-12-18T07:41:17;101604.41;;;18.93;44.16
47154;BME280;32907;41.412;2.164;2022-12-18T07:43:46;101602.75;;;18.92;44.50
47154;BME280;32907;41.412;2.164;2022-12-18T07:46:15;101581.44;;;18.79;44.25
47154;BME280;32907;41.412;2.164;2022-12-18T07:48:43;101607.13;;;18.93;44.04
47154;BME280;32907;41.412;2.164;2022-12-18T07:51:16;101616.34;;;18.92;44.30
47154;BME280;32907;41.412;2.164;2022-12-18T07:53:44;101604.28;;;18.83;44.04
47154;BME280;32907;41.412;2.164;2022-12-18T07:56:15;101581.00;;;18.65;43.85
47154;BME280;32907;41.412;2.164;2022-12-18T07:58:58;101548.44;;;18.43;43.81
47154;BME280;32907;41.412;2.164;2022-12-18T08:01:29;101612.41;;;18.78;44.05
47154;BME280;32907;41.412;2.164;2022-12-18T08:03:57;101633.16;;;18.89;44.00
47154;BME280;32907;41.412;2.164;2022-12-18T08:06:26;101631.22;;;18.84;43.39
47154;BME280;32907;41.412;2.164;2022-12-18T08:08:55;101624.94;;;18.84;43.58
47154;BME280;32907;41.412;2.164;2022-12-18T08:11:24;101624.94;;;18.84;43.76
47154;BME280;32907;41.412;2.164;2022-12-18T08:13:53;101620.59;;;18.83;44.24
47154;BME280;32907;41.412;2.164;2022-12-18T08:16:22;101635.06;;;18.88;44.58
47154;BME280;32907;41.412;2.164;2022-12-18T08:18:52;101639.97;;;19.18;49.08
47154;BME280;32907;41.412;2.164;2022-12-18T08:21:26;101648.00;;;19.35;47.65
47154;BME280;32907;41.412;2.164;2022-12-18T08:23:56;101614.97;;;19.21;47.15
47154;BME280;32907;41.412;2.164;2022-12-18T08:26:27;101649.38;;;19.38;44.99
47154;BME280;32907;41.412;2.164;2022-12-18T08:28:57;101655.00;;;19.26;44.82
47154;BME280;32907;41.412;2.164;2022-12-18T08:31:26;101577.56;;;18.69;44.82
47154;BME280;32907;41.412;2.164;2022-12-18T08:33:55;101650.53;;;19.15;44.97
47154;BME280;32907;41.412;2.164;2022-12-18T08:36:24;101654.66;;;19.17;45.28
47154;BME280;32907;41.412;2.164;2022-12-18T08:38:53;101657.38;;;19.17;45.01
47154;BME280;32907;41.412;2.164;2022-12-18T08:41:21;101650.31;;;19.21;45.09
47154;BME280;32907;41.412;2.164;2022-12-18T08:43:50;101641.28;;;19.16;45.27
47154;BME280;32907;41.412;2.164;2022-12-18T08:46:39;101614.81;;;19.01;45.19
47154;BME280;32907;41.412;2.164;2022-12-18T08:49:09;101679.31;;;19.38;45.17
47154;BME280;32907;41.412;2.164;2022-12-18T08:51:38;101635.00;;;19.10;46.94
47154;BME280;32907;41.412;2.164;2022-12-18T08:54:07;101676.31;;;19.39;46.71
47154;BME280;32907;41.412;2.164;2022-12-18T08:56:37;101656.66;;;19.32;46.60
47154;BME280;32907;41.412;2.164;2022-12-18T08:59:04;101658.09;;;19.40;47.33
47154;BME280;32907;41.412;2.164;2022-12-18T09:01:32;101680.88;;;19.61;46.13
47154;BME280;32907;41.412;2.164;2022-12-18T09:04:01;101694.88;;;19.74;45.43
47154;BME280;32907;41.412;2.164;2022-12-18T09:06:30;101660.47;;;19.58;44.96
47154;BME280;32907;41.412;2.164;2022-12-18T09:08:58;101654.34;;;19.46;44.38
47154;BME280;32907;41.412;2.164;2022-12-18T09:11:28;101691.06;;;19.75;44.35
47154;BME280;32907;41.412;2.164;2022-12-18T09:13:58;101705.50;;;19.76;44.18
47154;BME280;32907;41.412;2.164;2022-12-18T09:16:27;101702.22;;;19.74;44.31
47154;BME280;32907;41.412;2.164;2022-12-18T09:18:59;101656.78;;;19.47;45.08
47154;BME280;32907;41.412;2.164;2022-12-18T09:21:30;101642.31;;;19.37;45.23
47154;BME280;32907;41.412;2.164;2022-12-18T09:24:03;101659.00;;;19.50;44.52
47154;BME280;32907;41.412;2.164;2022-12-18T09:26:35;101706.31;;;19.76;44.33
47154;BME280;32907;41.412;2.164;2022-12-18T09:29:04;101690.41;;;19.63;45.74
47154;BME280;32907;41.412;2.164;2022-12-18T09:31:35;101648.81;;;19.36;46.87
47154;BME280;32907;41.412;2.164;2022-12-18T09:34:05;101692.31;;;19.58;47.14
47154;BME280;32907;41.412;2.164;2022-12-18T09:36:33;101712.28;;;19.73;47.84
47154;BME280;32907;41.412;2.164;2022-12-18T09:39:02;101681.88;;;19.49;45.80
47154;BME280;32907;41.412;2.164;2022-12-18T09:41:41;101725.91;;;19.73;46.08
47154;BME280;32907;41.412;2.164;2022-12-18T09:44:34;101717.94;;;19.67;46.62
47154;BME280;32907;41.412;2.164;2022-12-18T09:49:48;101729.31;;;19.59;46.02
47154;BME280;32907;41.412;2.164;2022-12-18T09:52:45;101735.09;;;19.67;46.52
47154;BME280;32907;41.412;2.164;2022-12-18T09:55:34;101735.91;;;19.68;46.07
47154;BME280;32907;41.412;2.164;2022-12-18T10:00:51;101738.28;;;19.59;45.68
47154;BME280;32907;41.412;2.164;2022-12-18T10:03:20;101728.97;;;19.55;45.83
47154;BME280;32907;41.412;2.164;2022-12-18T10:06:06;101748.69;;;19.67;45.51
47154;BME280;32907;41.412;2.164;2022-12-18T10:14:27;101750.38;;;19.73;46.04
47154;BME280;32907;41.412;2.164;2022-12-18T10:19:45;101746.59;;;19.74;46.44
47154;BME280;32907;41.412;2.164;2022-12-18T10:22:48;101706.34;;;19.49;47.35
47154;BME280;32907;41.412;2.164;2022-12-18T10:25:28;101711.53;;;19.56;46.77
47154;BME280;32907;41.412;2.164;2022-12-18T10:28:08;101738.19;;;19.81;47.32
47154;BME280;32907;41.412;2.164;2022-12-18T10:30:39;101709.47;;;19.63;46.56
47154;BME280;32907;41.412;2.164;2022-12-18T10:33:12;101746.13;;;19.88;45.85
47154;BME280;32907;41.412;2.164;2022-12-18T10:35:43;101691.47;;;19.57;46.20
47154;BME280;32907;41.412;2.164;2022-12-18T10:40:56;101745.03;;;19.83;45.48
47154;BME280;32907;41.412;2.164;2022-12-18T10:48:32;101748.25;;;19.80;46.53
47154;BME280;32907;41.412;2.164;2022-12-18T10:51:00;101628.97;;;19.03;45.75
47154;BME280;32907;41.412;2.164;2022-12-18T10:53:41;101741.63;;;19.71;46.52
47154;BME280;32907;41.412;2.164;2022-12-18T10:56:11;101713.44;;;19.55;46.68
47154;BME280;32907;41.412;2.164;2022-12-18T10:58:39;101697.91;;;19.51;47.26
47154;BME280;32907;41.412;2.164;2022-12-18T11:01:12;101738.19;;;19.81;46.43
47154;BME280;32907;41.412;2.164;2022-12-18T11:04:01;101706.75;;;19.63;47.26
47154;BME280;32907;41.412;2.164;2022-12-18T11:06:29;101724.84;;;19.79;47.08
47154;BME280;32907;41.412;2.164;2022-12-18T11:09:03;101712.25;;;19.68;46.74
47154;BME280;32907;41.412;2.164;2022-12-18T11:11:39;101719.38;;;19.74;47.48
47154;BME280;32907;41.412;2.164;2022-12-18T11:14:21;101682.69;;;19.50;47.25
47154;BME280;32907;41.412;2.164;2022-12-18T11:16:51;101742.25;;;19.78;46.93
47154;BME280;32907;41.412;2.164;2022-12-18T11:19:41;101725.09;;;19.78;47.59
47154;BME280;32907;41.412;2.164;2022-12-18T11:22:31;101727.06;;;19.82;47.87
47154;BME280;32907;41.412;2.164;2022-12-18T11:25:23;101728.69;;;19.83;47.48
47154;BME280;32907;41.412;2.164;2022-12-18T11:28:04;101720.53;;;19.83;47.51
47154;BME280;32907;41.412;2.164;2022-12-18T11:30:35;101717.81;;;19.83;47.95
47154;BME280;32907;41.412;2.164;2022-12-18T11:35:47;101718.66;;;19.89;48.11
47154;BME280;32907;41.412;2.164;2022-12-18T11:38:24;101675.72;;;19.64;48.56
47154;BME280;32907;41.412;2.164;2022-12-18T11:46:24;101670.53;;;19.58;48.52
47154;BME280;32907;41.412;2.164;2022-12-18T11:52:21;101715.78;;;20.06;52.23
47154;BME280;32907;41.412;2.164;2022-12-18T11:54:46;101682.28;;;20.05;49.63
47154;BME280;32907;41.412;2.164;2022-12-18T11:57:41;101690.78;;;20.19;48.53
47154;BME280;32907;41.412;2.164;2022-12-18T12:00:18;101694.69;;;20.33;48.64
47154;BME280;32907;41.412;2.164;2022-12-18T12:03:16;101690.88;;;20.34;48.93
47154;BME280;32907;41.412;2.164;2022-12-18T12:25:35;101687.78;;;20.21;48.52
47154;BME280;32907;41.412;2.164;2022-12-18T12:30:52;101695.97;;;20.21;48.71
47154;BME280;32907;41.412;2.164;2022-12-18T12:38:55;101653.25;;;20.21;48.38
47154;BME280;32907;41.412;2.164;2022-12-18T12:41:25;101669.63;;;20.31;48.30
47154;BME280;32907;41.412;2.164;2022-12-18T12:44:19;101627.53;;;20.02;48.19
47154;BME280;32907;41.412;2.164;2022-12-18T12:46:52;101666.09;;;20.31;48.08
47154;BME280;32907;41.412;2.164;2022-12-18T12:49:26;101657.59;;;20.27;48.29
47154;BME280;32907;41.412;2.164;2022-12-18T12:52:05;101664.13;;;20.26;49.16
47154;BME280;32907;41.412;2.164;2022-12-18T12:54:35;101651.06;;;20.23;50.94
47154;BME280;32907;41.412;2.164;2022-12-18T13:00:13;101569.78;;;19.95;51.97
47154;BME280;32907;41.412;2.164;2022-12-18T13:03:08;101660.47;;;20.53;51.72
47154;BME280;32907;41.412;2.164;2022-12-18T13:08:29;101649.56;;;20.48;51.85
47154;BME280;32907;41.412;2.164;2022-12-18T13:11:02;101637.78;;;20.42;51.32
47154;BME280;32907;41.412;2.164;2022-12-18T13:13:55;101623.31;;;20.31;51.26
47154;BME280;32907;41.412;2.164;2022-12-18T13:16:25;101657.72;;;20.48;50.57
47154;BME280;32907;41.412;2.164;2022-12-18T13:18:56;101627.69;;;20.32;51.89
47154;BME280;32907;41.412;2.164;2022-12-18T13:21:32;101651.47;;;20.52;51.58
47154;BME280;32907;41.412;2.164;2022-12-18T13:24:24;101652.84;;;20.55;50.73
47154;BME280;32907;41.412;2.164;2022-12-18T13:26:53;101633.66;;;20.29;50.22
47154;BME280;32907;41.412;2.164;2022-12-18T13:29:43;101652.50;;;20.41;49.74
47154;BME280;32907;41.412;2.164;2022-12-18T13:32:24;101646.78;;;20.37;50.30
47154;BME280;32907;41.412;2.164;2022-12-18T13:35:37;101651.69;;;20.40;51.22
47154;BME280;32907;41.412;2.164;2022-12-18T13:40:55;101646.03;;;20.47;49.49
47154;BME280;32907;41.412;2.164;2022-12-18T13:43:44;101629.84;;;20.35;49.08
47154;BME280;32907;41.412;2.164;2022-12-18T13:46:30;101630.63;;;20.26;51.28
47154;BME280;32907;41.412;2.164;2022-12-18T13:50:04;101634.50;;;20.40;50.34
47154;BME280;32907;41.412;2.164;2022-12-18T13:52:21;101594.94;;;20.17;49.43
47154;BME280;32907;41.412;2.164;2022-12-18T13:55:16;101639.41;;;20.43;49.35
47154;BME280;32907;41.412;2.164;2022-12-18T13:57:46;101609.66;;;20.21;49.87
47154;BME280;32907;41.412;2.164;2022-12-18T14:00:24;101639.41;;;20.43;50.17
47154;BME280;32907;41.412;2.164;2022-12-18T14:02:52;101590.25;;;20.12;50.25
47154;BME280;32907;41.412;2.164;2022-12-18T14:07:50;101623.34;;;20.42;49.76
47154;BME280;32907;41.412;2.164;2022-12-18T14:10:20;101560.00;;;20.04;50.18
47154;BME280;32907;41.412;2.164;2022-12-18T14:13:10;101628.84;;;20.47;50.36
47154;BME280;32907;41.412;2.164;2022-12-18T14:15:41;101615.75;;;20.44;50.25
47154;BME280;32907;41.412;2.164;2022-12-18T14:18:26;101641.97;;;20.55;49.70
47154;BME280;32907;41.412;2.164;2022-12-18T14:20:59;101629.88;;;20.40;49.65
47154;BME280;32907;41.412;2.164;2022-12-18T14:23:39;101647.91;;;20.52;50.88
47154;BME280;32907;41.412;2.164;2022-12-18T14:29:18;101633.72;;;20.45;50.83
47154;BME280;32907;41.412;2.164;2022-12-18T14:34:48;101616.81;;;20.37;50.65
47154;BME280;32907;41.412;2.164;2022-12-18T14:37:22;101617.34;;;20.39;51.09
47154;BME280;32907;41.412;2.164;2022-12-18T14:40:01;101636.78;;;20.58;51.57
47154;BME280;32907;41.412;2.164;2022-12-18T14:42:37;101615.22;;;20.47;50.99
47154;BME280;32907;41.412;2.164;2022-12-18T14:48:14;101560.34;;;20.18;50.92
47154;BME280;32907;41.412;2.164;2022-12-18T14:51:20;101638.13;;;20.56;51.40
47154;BME280;32907;41.412;2.164;2022-12-18T14:54:12;101643.03;;;20.59;51.29
47154;BME280;32907;41.412;2.164;2022-12-18T14:56:47;101643.03;;;20.59;51.06
47154;BME280;32907;41.412;2.164;2022-12-18T14:59:22;101639.78;;;20.57;50.94
47154;BME280;32907;41.412;2.164;2022-12-18T15:02:04;101638.13;;;20.56;50.78
47154;BME280;32907;41.412;2.164;2022-12-18T15:04:39;101628.03;;;20.46;50.90
47154;BME280;32907;41.412;2.164;2022-12-18T15:09:40;101643.56;;;20.46;50.77
47154;BME280;32907;41.412;2.164;2022-12-18T15:12:32;101605.81;;;20.17;50.66